sensor_id;sensor_type;location;lat;lon;timestamp;pressure;altitude;pressure_sealevel;temperature;humidity
44531;BME280;30240;47.418;0.700;2023-05-27T00:00:33;100970.14770507812;;;15.64;74.96
44531;BME280;30240;47.418;0.700;2023-05-27T00:02:59;100960.99853515625;;;15.55;75.04
44531;BME280;30240;47.418;0.700;2023-05-27T00:05:23;100963.92211914062;;;15.5;75.16
44531;BME280;30240;47.418;0.700;2023-05-27T00:07:48;100963.92211914062;;;15.5;75.16
44531;BME280;30240;47.418;0.700;2023-05-27T00:10:19;100970.0927734375;;;15.53;74.9
44531;BME280;30240;47.418;0.700;2023-05-27T00:12:40;100960.888671875;;;15.51;74.77
44531;BME280;30240;47.418;0.700;2023-05-27T00:17:28;100956.75048828125;;;15.42;74.58
44531;BME280;30240;47.418;0.700;2023-05-27T00:19:53;100956.75048828125;;;15.42;74.58
44531;BME280;30240;47.418;0.700;2023-05-27T00:22:19;100959.78393554688;;;15.42;74.54
44531;BME280;30240;47.418;0.700;2023-05-27T00:24:43;100966.162109375;;;15.32;74.66
44531;BME280;30240;47.418;0.700;2023-05-27T00:27:09;100953.98559570312;;;15.25;74.68
44531;BME280;30240;47.418;0.700;2023-05-27T00:29:34;100958.56323242188;;;15.29;74.43
44531;BME280;30240;47.418;0.700;2023-05-27T00:31:59;100958.56323242188;;;15.29;74.43
44531;BME280;30240;47.418;0.700;2023-05-27T00:34:28;100961.09619140625;;;15.19;74.57
44531;BME280;30240;47.418;0.700;2023-05-27T00:36:49;100951.45263671875;;;15.13;74.58
44531;BME280;30240;47.418;0.700;2023-05-27T00:39:13;100950.37231445312;;;15.18;74.52
44531;BME280;30240;47.418;0.700;2023-05-27T00:41:43;100950.09155273438;;;15.15;74.41
44531;BME280;30240;47.418;0.700;2023-05-27T00:44:05;100950.09155273438;;;15.15;74.41
44531;BME280;30240;47.418;0.700;2023-05-27T00:46:29;100943.017578125;;;15.08;74.47
44531;BME280;30240;47.418;0.700;2023-05-27T00:48:54;100942.0166015625;;;15.05;74.65
44531;BME280;30240;47.418;0.700;2023-05-27T00:51:19;100942.82836914062;;;14.99;74.73
44531;BME280;30240;47.418;0.700;2023-05-27T00:53:44;100940.17333984375;;;15.03;74.85
44531;BME280;30240;47.418;0.700;2023-05-27T00:56:09;100940.17333984375;;;15.03;74.85
44531;BME280;30240;47.418;0.700;2023-05-27T00:58:34;100941.37573242188;;;14.95;74.98
44531;BME280;30240;47.418;0.700;2023-05-27T01:00:58;100940.576171875;;;14.91;74.97
44531;BME280;30240;47.418;0.700;2023-05-27T01:03:23;100934.2529296875;;;14.88;75.13
44531;BME280;30240;47.418;0.700;2023-05-27T01:05:51;100931.689453125;;;14.85;75.21
44531;BME280;30240;47.418;0.700;2023-05-27T01:08:22;100930.71899414062;;;14.87;75.18
44531;BME280;30240;47.418;0.700;2023-05-27T01:10:41;100930.71899414062;;;14.87;75.18
44531;BME280;30240;47.418;0.700;2023-05-27T01:13:08;100931.201171875;;;14.81;75.34
44531;BME280;30240;47.418;0.700;2023-05-27T01:15:31;100922.95532226562;;;14.77;75.43
44531;BME280;30240;47.418;0.700;2023-05-27T01:17:55;100922.32666015625;;;14.8;75.38
44531;BME280;30240;47.418;0.700;2023-05-27T01:20:19;100917.48657226562;;;14.76;75.63
44531;BME280;30240;47.418;0.700;2023-05-27T01:22:44;100917.48657226562;;;14.76;75.63
44531;BME280;30240;47.418;0.700;2023-05-27T01:25:09;100908.0078125;;;14.7;75.57
44531;BME280;30240;47.418;0.700;2023-05-27T01:27:34;100906.14624023438;;;14.66;75.71
44531;BME280;30240;47.418;0.700;2023-05-27T01:29:59;100905.79833984375;;;14.6;75.82
44531;BME280;30240;47.418;0.700;2023-05-27T01:32:27;100903.64990234375;;;14.53;76.29
44531;BME280;30240;47.418;0.700;2023-05-27T01:34:54;100903.64990234375;;;14.53;76.29
44531;BME280;30240;47.418;0.700;2023-05-27T01:37:16;100904.9072265625;;;14.53;76.35
44531;BME280;30240;47.418;0.700;2023-05-27T01:39:39;100896.2646484375;;;14.44;76.51
44531;BME280;30240;47.418;0.700;2023-05-27T01:42:04;100895.73364257812;;;14.33;76.73
44531;BME280;30240;47.418;0.700;2023-05-27T01:44:28;100891.48559570312;;;14.33;76.96
44531;BME280;30240;47.418;0.700;2023-05-27T01:46:57;100891.48559570312;;;14.33;76.96
44531;BME280;30240;47.418;0.700;2023-05-27T01:49:18;100891.82739257812;;;14.35;76.94
44531;BME280;30240;47.418;0.700;2023-05-27T01:51:43;100894.59228515625;;;14.33;76.8
44531;BME280;30240;47.418;0.700;2023-05-27T01:54:08;100895.00732421875;;;14.26;77.08
44531;BME280;30240;47.418;0.700;2023-05-27T01:56:33;100889.95971679688;;;14.29;76.93
44531;BME280;30240;47.418;0.700;2023-05-27T01:58:58;100889.95971679688;;;14.29;76.93
44531;BME280;30240;47.418;0.700;2023-05-27T02:01:23;100894.14672851562;;;14.24;77.18
44531;BME280;30240;47.418;0.700;2023-05-27T02:03:49;100886.77978515625;;;14.18;77.4
44531;BME280;30240;47.418;0.700;2023-05-27T02:06:14;100888.95263671875;;;14.22;77.3
44531;BME280;30240;47.418;0.700;2023-05-27T02:08:38;100884.12475585938;;;14.17;77.39
44531;BME280;30240;47.418;0.700;2023-05-27T02:11:04;100884.12475585938;;;14.17;77.39
44531;BME280;30240;47.418;0.700;2023-05-27T02:13:28;100881.201171875;;;14.15;77.5
44531;BME280;30240;47.418;0.700;2023-05-27T02:15:53;100878.92456054688;;;14.15;77.38
44531;BME280;30240;47.418;0.700;2023-05-27T02:18:18;100877.45361328125;;;14.17;77.59
44531;BME280;30240;47.418;0.700;2023-05-27T02:20:43;100882.72094726562;;;14.08;77.51
44531;BME280;30240;47.418;0.700;2023-05-27T02:23:08;100882.72094726562;;;14.08;77.51
44531;BME280;30240;47.418;0.700;2023-05-27T02:25:33;100884.08813476562;;;14.05;77.57
44531;BME280;30240;47.418;0.700;2023-05-27T02:27:59;100878.43627929688;;;14.01;77.7
44531;BME280;30240;47.418;0.700;2023-05-27T02:30:23;100877.20336914062;;;13.97;77.88
44531;BME280;30240;47.418;0.700;2023-05-27T02:32:48;100877.76489257812;;;14.01;77.84
44531;BME280;30240;47.418;0.700;2023-05-27T02:35:14;100877.76489257812;;;14.01;77.84
44531;BME280;30240;47.418;0.700;2023-05-27T02:37:39;100886.99340820312;;;13.95;78.07
44531;BME280;30240;47.418;0.700;2023-05-27T02:40:04;100883.4716796875;;;13.91;78.03
44531;BME280;30240;47.418;0.700;2023-05-27T02:42:29;100882.34252929688;;;13.93;77.91
44531;BME280;30240;47.418;0.700;2023-05-27T02:44:53;100873.80981445312;;;13.83;78.25
44531;BME280;30240;47.418;0.700;2023-05-27T02:47:19;100871.42944335938;;;13.84;78.42
44531;BME280;30240;47.418;0.700;2023-05-27T02:49:43;100871.42944335938;;;13.84;78.42
44531;BME280;30240;47.418;0.700;2023-05-27T02:52:09;100865.00244140625;;;13.81;78.44
44531;BME280;30240;47.418;0.700;2023-05-27T02:54:34;100868.1884765625;;;13.76;78.54
44531;BME280;30240;47.418;0.700;2023-05-27T02:57:03;100866.24755859375;;;13.77;78.63
44531;BME280;30240;47.418;0.700;2023-05-27T02:59:23;100850.70190429688;;;13.76;78.61
44531;BME280;30240;47.418;0.700;2023-05-27T03:01:48;100850.70190429688;;;13.76;78.61
44531;BME280;30240;47.418;0.700;2023-05-27T03:04:14;100859.8876953125;;;13.73;78.73
44531;BME280;30240;47.418;0.700;2023-05-27T03:06:38;100856.89697265625;;;13.74;78.9
44531;BME280;30240;47.418;0.700;2023-05-27T03:09:04;100853.93676757812;;;13.71;78.84
44531;BME280;30240;47.418;0.700;2023-05-27T03:11:28;100858.23364257812;;;13.74;78.95
44531;BME280;30240;47.418;0.700;2023-05-27T03:13:53;100858.23364257812;;;13.74;78.95
44531;BME280;30240;47.418;0.700;2023-05-27T03:16:18;100857.2021484375;;;13.7;78.96
44531;BME280;30240;47.418;0.700;2023-05-27T03:18:43;100859.14306640625;;;13.6;79.42
44531;BME280;30240;47.418;0.700;2023-05-27T03:21:08;100857.00073242188;;;13.62;79.26
44531;BME280;30240;47.418;0.700;2023-05-27T03:23:33;100856.64672851562;;;13.65;79.34
44531;BME280;30240;47.418;0.700;2023-05-27T03:25:58;100856.64672851562;;;13.65;79.34
44531;BME280;30240;47.418;0.700;2023-05-27T03:28:23;100845.42846679688;;;13.59;79.47
44531;BME280;30240;47.418;0.700;2023-05-27T03:30:48;100845.29418945312;;;13.59;79.31
44531;BME280;30240;47.418;0.700;2023-05-27T03:33:13;100849.0966796875;;;13.52;79.71
44531;BME280;30240;47.418;0.700;2023-05-27T03:35:39;100851.123046875;;;13.56;79.83
44531;BME280;30240;47.418;0.700;2023-05-27T03:38:04;100851.123046875;;;13.56;79.83
44531;BME280;30240;47.418;0.700;2023-05-27T03:40:28;100852.11791992188;;;13.56;79.56
44531;BME280;30240;47.418;0.700;2023-05-27T03:42:53;100846.78344726562;;;13.5;79.81
44531;BME280;30240;47.418;0.700;2023-05-27T03:45:18;100839.09912109375;;;13.41;79.98
44531;BME280;30240;47.418;0.700;2023-05-27T03:47:43;100841.796875;;;13.45;80.18
44531;BME280;30240;47.418;0.700;2023-05-27T03:50:09;100841.796875;;;13.45;80.18
44531;BME280;30240;47.418;0.700;2023-05-27T03:52:33;100838.31176757812;;;13.53;79.96
44531;BME280;30240;47.418;0.700;2023-05-27T03:54:58;100838.59252929688;;;13.45;79.9
44531;BME280;30240;47.418;0.700;2023-05-27T03:57:24;100841.31469726562;;;13.39;80.14
44531;BME280;30240;47.418;0.700;2023-05-27T03:59:49;100835.02197265625;;;13.42;80.36
44531;BME280;30240;47.418;0.700;2023-05-27T04:02:13;100835.02197265625;;;13.42;80.36
44531;BME280;30240;47.418;0.700;2023-05-27T04:04:38;100833.935546875;;;13.28;80.56
44531;BME280;30240;47.418;0.700;2023-05-27T04:07:04;100836.8896484375;;;13.32;80.54
44531;BME280;30240;47.418;0.700;2023-05-27T04:09:28;100835.2783203125;;;13.35;80.63
44531;BME280;30240;47.418;0.700;2023-05-27T04:11:53;100835.68725585938;;;13.34;80.57
44531;BME280;30240;47.418;0.700;2023-05-27T04:14:19;100833.29467773438;;;13.36;80.73
44531;BME280;30240;47.418;0.700;2023-05-27T04:16:43;100833.29467773438;;;13.36;80.73
44531;BME280;30240;47.418;0.700;2023-05-27T04:19:08;100838.20190429688;;;13.35;80.73
44531;BME280;30240;47.418;0.700;2023-05-27T04:21:33;100835.65063476562;;;13.28;80.98
44531;BME280;30240;47.418;0.700;2023-05-27T04:23:58;100833.04443359375;;;13.36;80.73
44531;BME280;30240;47.418;0.700;2023-05-27T04:26:23;100831.8359375;;;13.41;80.62
44531;BME280;30240;47.418;0.700;2023-05-27T04:28:48;100831.8359375;;;13.41;80.62
44531;BME280;30240;47.418;0.700;2023-05-27T04:31:13;100834.84497070312;;;13.43;80.6
44531;BME280;30240;47.418;0.700;2023-05-27T04:33:38;100827.20947265625;;;13.32;80.74
44531;BME280;30240;47.418;0.700;2023-05-27T04:36:03;100831.95190429688;;;13.28;81.09
44531;BME280;30240;47.418;0.700;2023-05-27T04:38:28;100833.544921875;;;13.36;80.9
44531;BME280;30240;47.418;0.700;2023-05-27T04:40:53;100833.544921875;;;13.36;80.9
44531;BME280;30240;47.418;0.700;2023-05-27T04:43:18;100831.43920898438;;;13.43;80.83
44531;BME280;30240;47.418;0.700;2023-05-27T04:45:43;100827.9052734375;;;13.35;81.01
44531;BME280;30240;47.418;0.700;2023-05-27T04:48:09;100833.14819335938;;;13.49;80.83
44531;BME280;30240;47.418;0.700;2023-05-27T04:50:34;100838.04931640625;;;13.49;80.96
44531;BME280;30240;47.418;0.700;2023-05-27T04:52:59;100838.04931640625;;;13.49;80.96
44531;BME280;30240;47.418;0.700;2023-05-27T04:55:24;100843.38989257812;;;13.45;80.89
44531;BME280;30240;47.418;0.700;2023-05-27T04:57:48;100843.7744140625;;;13.53;80.7
44531;BME280;30240;47.418;0.700;2023-05-27T05:00:14;100837.6708984375;;;13.48;80.64
44531;BME280;30240;47.418;0.700;2023-05-27T05:02:38;100840.771484375;;;13.58;80.63
44531;BME280;30240;47.418;0.700;2023-05-27T05:05:05;100840.771484375;;;13.58;80.63
44531;BME280;30240;47.418;0.700;2023-05-27T05:07:29;100842.22412109375;;;13.55;80.51
44531;BME280;30240;47.418;0.700;2023-05-27T05:09:53;100835.77880859375;;;13.58;80.55
44531;BME280;30240;47.418;0.700;2023-05-27T05:12:18;100841.66259765625;;;13.65;80.56
44531;BME280;30240;47.418;0.700;2023-05-27T05:14:43;100844.08569335938;;;13.63;80.47
44531;BME280;30240;47.418;0.700;2023-05-27T05:17:09;100844.08569335938;;;13.63;80.47
44531;BME280;30240;47.418;0.700;2023-05-27T05:19:33;100846.435546875;;;13.69;80.44
44531;BME280;30240;47.418;0.700;2023-05-27T05:21:58;100843.18237304688;;;13.67;80.51
44531;BME280;30240;47.418;0.700;2023-05-27T05:24:24;100841.4306640625;;;13.78;80.34
44531;BME280;30240;47.418;0.700;2023-05-27T05:26:49;100836.12670898438;;;13.71;80.23
44531;BME280;30240;47.418;0.700;2023-05-27T05:29:13;100836.12670898438;;;13.71;80.23
44531;BME280;30240;47.418;0.700;2023-05-27T05:31:39;100843.52416992188;;;13.88;80.0
44531;BME280;30240;47.418;0.700;2023-05-27T05:34:03;100841.63818359375;;;13.91;80.08
44531;BME280;30240;47.418;0.700;2023-05-27T05:36:29;100846.78955078125;;;13.98;79.93
44531;BME280;30240;47.418;0.700;2023-05-27T05:38:57;100851.7822265625;;;14.11;79.52
44531;BME280;30240;47.418;0.700;2023-05-27T05:41:18;100855.18188476562;;;14.22;79.4
44531;BME280;30240;47.418;0.700;2023-05-27T05:43:43;100855.18188476562;;;14.22;79.4
44531;BME280;30240;47.418;0.700;2023-05-27T05:46:08;100852.32543945312;;;14.22;79.25
44531;BME280;30240;47.418;0.700;2023-05-27T05:48:33;100851.42211914062;;;14.24;79.17
44531;BME280;30240;47.418;0.700;2023-05-27T05:50:58;100853.98559570312;;;14.36;79.06
44531;BME280;30240;47.418;0.700;2023-05-27T05:53:23;100853.06396484375;;;14.56;78.77
44531;BME280;30240;47.418;0.700;2023-05-27T05:55:48;100853.06396484375;;;14.56;78.77
44531;BME280;30240;47.418;0.700;2023-05-27T05:58:13;100852.75268554688;;;14.59;78.8
44531;BME280;30240;47.418;0.700;2023-05-27T06:00:38;100853.98559570312;;;14.76;78.18
44531;BME280;30240;47.418;0.700;2023-05-27T06:03:03;100860.68725585938;;;14.76;77.99
44531;BME280;30240;47.418;0.700;2023-05-27T06:05:28;100860.29663085938;;;14.81;78.08
44531;BME280;30240;47.418;0.700;2023-05-27T06:07:53;100860.29663085938;;;14.81;78.08
44531;BME280;30240;47.418;0.700;2023-05-27T06:10:19;100852.8076171875;;;14.76;78.08
44531;BME280;30240;47.418;0.700;2023-05-27T06:12:43;100851.5625;;;14.73;78.19
44531;BME280;30240;47.418;0.700;2023-05-27T06:15:08;100855.32836914062;;;14.8;78.17
44531;BME280;30240;47.418;0.700;2023-05-27T06:17:33;100840.99731445312;;;15.13;76.96
44531;BME280;30240;47.418;0.700;2023-05-27T06:19:58;100840.99731445312;;;15.13;76.96
44531;BME280;30240;47.418;0.700;2023-05-27T06:22:24;100847.8759765625;;;15.16;77.29
44531;BME280;30240;47.418;0.700;2023-05-27T06:24:49;100841.5771484375;;;15.37;76.49
44531;BME280;30240;47.418;0.700;2023-05-27T06:27:13;100841.10717773438;;;15.72;75.99
44531;BME280;30240;47.418;0.700;2023-05-27T06:29:39;100835.21118164062;;;15.99;75.23
44531;BME280;30240;47.418;0.700;2023-05-27T06:32:04;100835.21118164062;;;15.99;75.23
44531;BME280;30240;47.418;0.700;2023-05-27T06:34:29;100836.82250976562;;;16.21;74.35
44531;BME280;30240;47.418;0.700;2023-05-27T06:36:54;100830.6884765625;;;16.17;73.95
44531;BME280;30240;47.418;0.700;2023-05-27T06:39:19;100826.50146484375;;;16.14;74.2
44531;BME280;30240;47.418;0.700;2023-05-27T06:41:44;100829.59594726562;;;16.44;73.88
44531;BME280;30240;47.418;0.700;2023-05-27T06:44:09;100829.59594726562;;;16.44;73.88
44531;BME280;30240;47.418;0.700;2023-05-27T06:46:34;100832.23266601562;;;16.59;73.28
44531;BME280;30240;47.418;0.700;2023-05-27T06:48:59;100825.97045898438;;;16.44;73.98
44531;BME280;30240;47.418;0.700;2023-05-27T06:51:24;100825.87280273438;;;16.57;73.43
44531;BME280;30240;47.418;0.700;2023-05-27T06:53:49;100822.79663085938;;;16.64;73.62
44531;BME280;30240;47.418;0.700;2023-05-27T06:56:14;100822.79663085938;;;16.64;73.62
44531;BME280;30240;47.418;0.700;2023-05-27T06:58:39;100820.93505859375;;;16.8;73.1
44531;BME280;30240;47.418;0.700;2023-05-27T07:01:04;100814.82543945312;;;17.14;72.29
44531;BME280;30240;47.418;0.700;2023-05-27T07:03:29;100814.6728515625;;;17.42;71.82
44531;BME280;30240;47.418;0.700;2023-05-27T07:05:54;100809.86938476562;;;17.39;71.37
44531;BME280;30240;47.418;0.700;2023-05-27T07:08:19;100809.86938476562;;;17.39;71.37
44531;BME280;30240;47.418;0.700;2023-05-27T07:10:43;100809.33837890625;;;17.79;70.27
44531;BME280;30240;47.418;0.700;2023-05-27T07:13:09;100803.10668945312;;;17.77;70.06
44531;BME280;30240;47.418;0.700;2023-05-27T07:15:34;100804.15649414062;;;17.63;70.69
44531;BME280;30240;47.418;0.700;2023-05-27T07:17:59;100805.15747070312;;;18.0;70.03
44531;BME280;30240;47.418;0.700;2023-05-27T07:20:24;100802.34985351562;;;18.01;69.88
44531;BME280;30240;47.418;0.700;2023-05-27T07:22:49;100802.34985351562;;;18.01;69.88
44531;BME280;30240;47.418;0.700;2023-05-27T07:25:14;100803.98559570312;;;17.98;69.97
44531;BME280;30240;47.418;0.700;2023-05-27T07:27:39;100793.701171875;;;18.1;69.01
44531;BME280;30240;47.418;0.700;2023-05-27T07:30:04;100786.62719726562;;;18.03;68.99
44531;BME280;30240;47.418;0.700;2023-05-27T07:32:28;100783.36181640625;;;18.31;68.54
44531;BME280;30240;47.418;0.700;2023-05-27T07:34:54;100783.36181640625;;;18.31;68.54
44531;BME280;30240;47.418;0.700;2023-05-27T07:37:19;100779.10766601562;;;18.62;67.74
44531;BME280;30240;47.418;0.700;2023-05-27T07:39:44;100782.89794921875;;;18.71;67.44
44531;BME280;30240;47.418;0.700;2023-05-27T07:42:09;100781.201171875;;;18.87;67.24
44531;BME280;30240;47.418;0.700;2023-05-27T07:44:34;100781.09130859375;;;18.98;67.02
44531;BME280;30240;47.418;0.700;2023-05-27T07:46:59;100781.09130859375;;;18.98;67.02
44531;BME280;30240;47.418;0.700;2023-05-27T07:49:24;100783.65478515625;;;19.64;66.21
44531;BME280;30240;47.418;0.700;2023-05-27T07:51:49;100781.494140625;;;19.64;65.33
44531;BME280;30240;47.418;0.700;2023-05-27T07:54:14;100782.20825195312;;;19.73;65.06
44531;BME280;30240;47.418;0.700;2023-05-27T07:56:39;100776.1474609375;;;19.59;65.72
44531;BME280;30240;47.418;0.700;2023-05-27T07:59:04;100776.1474609375;;;19.59;65.72
44531;BME280;30240;47.418;0.700;2023-05-27T08:01:29;100772.8515625;;;19.88;64.71
44531;BME280;30240;47.418;0.700;2023-05-27T08:03:53;100772.4365234375;;;20.22;63.79
44531;BME280;30240;47.418;0.700;2023-05-27T08:06:19;100764.73388671875;;;20.22;63.92
44531;BME280;30240;47.418;0.700;2023-05-27T08:08:44;100765.3564453125;;;20.81;62.44
44531;BME280;30240;47.418;0.700;2023-05-27T08:11:09;100765.3564453125;;;20.81;62.44
44531;BME280;30240;47.418;0.700;2023-05-27T08:13:34;100762.87231445312;;;20.81;62.06
44531;BME280;30240;47.418;0.700;2023-05-27T08:15:59;100760.7421875;;;21.38;60.71
44531;BME280;30240;47.418;0.700;2023-05-27T08:18:27;100762.36572265625;;;21.33;60.8
44531;BME280;30240;47.418;0.700;2023-05-27T08:20:48;100764.306640625;;;21.79;59.98
44531;BME280;30240;47.418;0.700;2023-05-27T08:23:13;100764.306640625;;;21.79;59.98
44531;BME280;30240;47.418;0.700;2023-05-27T08:25:39;100766.56494140625;;;22.58;58.59
44531;BME280;30240;47.418;0.700;2023-05-27T08:28:03;100758.50219726562;;;22.7;58.39
44531;BME280;30240;47.418;0.700;2023-05-27T08:30:29;100761.68212890625;;;22.52;58.45
44531;BME280;30240;47.418;0.700;2023-05-27T08:32:54;100756.33544921875;;;22.77;57.52
44531;BME280;30240;47.418;0.700;2023-05-27T08:35:19;100756.33544921875;;;22.77;57.52
44531;BME280;30240;47.418;0.700;2023-05-27T08:37:43;100757.78198242188;;;22.94;57.22
44531;BME280;30240;47.418;0.700;2023-05-27T08:40:12;100755.26733398438;;;22.77;57.31
44531;BME280;30240;47.418;0.700;2023-05-27T08:42:34;100755.21850585938;;;22.36;59.08
44531;BME280;30240;47.418;0.700;2023-05-27T08:44:59;100758.01391601562;;;22.38;58.93
44531;BME280;30240;47.418;0.700;2023-05-27T08:47:24;100751.87377929688;;;22.97;58.05
44531;BME280;30240;47.418;0.700;2023-05-27T08:49:48;100751.87377929688;;;22.97;58.05
44531;BME280;30240;47.418;0.700;2023-05-27T08:52:17;100748.9501953125;;;23.51;56.5
44531;BME280;30240;47.418;0.700;2023-05-27T08:54:39;100740.98510742188;;;23.52;55.58
44531;BME280;30240;47.418;0.700;2023-05-27T08:57:07;100737.49389648438;;;23.86;55.28
44531;BME280;30240;47.418;0.700;2023-05-27T08:59:29;100729.79125976562;;;24.43;54.15
44531;BME280;30240;47.418;0.700;2023-05-27T09:01:54;100729.79125976562;;;24.43;54.15
44531;BME280;30240;47.418;0.700;2023-05-27T09:04:18;100730.92041015625;;;25.36;52.42
44531;BME280;30240;47.418;0.700;2023-05-27T09:06:44;100729.18701171875;;;25.15;52.87
44531;BME280;30240;47.418;0.700;2023-05-27T09:09:09;100722.3876953125;;;24.86;54.08
44531;BME280;30240;47.418;0.700;2023-05-27T09:11:34;100725.87280273438;;;25.05;53.29
44531;BME280;30240;47.418;0.700;2023-05-27T09:13:58;100725.87280273438;;;25.05;53.29
44531;BME280;30240;47.418;0.700;2023-05-27T09:16:24;100723.29711914062;;;25.5;51.45
44531;BME280;30240;47.418;0.700;2023-05-27T09:18:49;100715.36865234375;;;24.95;52.64
44531;BME280;30240;47.418;0.700;2023-05-27T09:21:14;100715.3564453125;;;24.51;53.07
44531;BME280;30240;47.418;0.700;2023-05-27T09:23:39;100715.00244140625;;;25.64;50.8
44531;BME280;30240;47.418;0.700;2023-05-27T09:26:06;100715.00244140625;;;25.64;50.8
44531;BME280;30240;47.418;0.700;2023-05-27T09:28:28;100717.85888671875;;;25.77;51.32
44531;BME280;30240;47.418;0.700;2023-05-27T09:30:58;100711.62719726562;;;25.56;51.55
44531;BME280;30240;47.418;0.700;2023-05-27T09:33:22;100706.95190429688;;;26.23;50.82
44531;BME280;30240;47.418;0.700;2023-05-27T09:35:43;100704.8583984375;;;26.01;49.94
44531;BME280;30240;47.418;0.700;2023-05-27T09:38:08;100704.8583984375;;;26.01;49.94
44531;BME280;30240;47.418;0.700;2023-05-27T09:40:35;100707.2021484375;;;25.8;50.09
44531;BME280;30240;47.418;0.700;2023-05-27T09:42:59;100702.89306640625;;;26.16;50.02
44531;BME280;30240;47.418;0.700;2023-05-27T09:45:24;100701.0009765625;;;26.55;49.44
44531;BME280;30240;47.418;0.700;2023-05-27T09:47:49;100701.2939453125;;;28.09;46.46
44531;BME280;30240;47.418;0.700;2023-05-27T09:50:14;100701.2939453125;;;28.09;46.46
44531;BME280;30240;47.418;0.700;2023-05-27T09:52:39;100697.607421875;;;27.88;46.97
44531;BME280;30240;47.418;0.700;2023-05-27T09:55:04;100695.1416015625;;;26.57;49.68
44531;BME280;30240;47.418;0.700;2023-05-27T09:57:29;100686.82861328125;;;27.36;49.19
44531;BME280;30240;47.418;0.700;2023-05-27T09:59:54;100686.56005859375;;;27.47;48.16
44531;BME280;30240;47.418;0.700;2023-05-27T10:02:20;100686.56005859375;;;27.47;48.16
44531;BME280;30240;47.418;0.700;2023-05-27T10:04:44;100687.451171875;;;27.34;49.3
44531;BME280;30240;47.418;0.700;2023-05-27T10:07:09;100685.107421875;;;27.71;48.14
44531;BME280;30240;47.418;0.700;2023-05-27T10:09:33;100682.14111328125;;;28.68;46.51
44531;BME280;30240;47.418;0.700;2023-05-27T10:11:59;100678.6376953125;;;28.51;45.42
44531;BME280;30240;47.418;0.700;2023-05-27T10:14:23;100678.6376953125;;;28.51;45.42
44531;BME280;30240;47.418;0.700;2023-05-27T10:16:52;100679.41284179688;;;28.72;45.18
44531;BME280;30240;47.418;0.700;2023-05-27T10:19:14;100683.92944335938;;;27.53;47.46
44531;BME280;30240;47.418;0.700;2023-05-27T10:21:42;100677.783203125;;;27.3;48.05
44531;BME280;30240;47.418;0.700;2023-05-27T10:24:04;100674.98168945312;;;28.99;45.55
44531;BME280;30240;47.418;0.700;2023-05-27T10:26:33;100670.4345703125;;;27.95;46.02
44531;BME280;30240;47.418;0.700;2023-05-27T10:29:05;100670.4345703125;;;27.95;46.02
44531;BME280;30240;47.418;0.700;2023-05-27T10:31:18;100671.7041015625;;;28.48;45.75
44531;BME280;30240;47.418;0.700;2023-05-27T10:33:46;100675.2685546875;;;29.29;44.95
44531;BME280;30240;47.418;0.700;2023-05-27T10:36:09;100675.23193359375;;;28.21;46.38
44531;BME280;30240;47.418;0.700;2023-05-27T10:38:34;100673.96850585938;;;27.99;46.89
44531;BME280;30240;47.418;0.700;2023-05-27T10:40:59;100673.96850585938;;;27.99;46.89
44531;BME280;30240;47.418;0.700;2023-05-27T10:43:27;100664.6240234375;;;29.42;42.93
44531;BME280;30240;47.418;0.700;2023-05-27T10:45:48;100668.37768554688;;;29.2;43.6
44531;BME280;30240;47.418;0.700;2023-05-27T10:48:15;100668.10913085938;;;28.59;44.38
44531;BME280;30240;47.418;0.700;2023-05-27T10:50:39;100664.78271484375;;;29.96;42.88
44531;BME280;30240;47.418;0.700;2023-05-27T10:53:04;100664.78271484375;;;29.96;42.88
44531;BME280;30240;47.418;0.700;2023-05-27T10:55:30;100661.09619140625;;;30.28;42.01
44531;BME280;30240;47.418;0.700;2023-05-27T10:57:54;100655.92041015625;;;29.11;43.63
44531;BME280;30240;47.418;0.700;2023-05-27T11:00:20;100654.1748046875;;;28.21;44.29
44531;BME280;30240;47.418;0.700;2023-05-27T11:02:44;100649.20043945312;;;30.0;42.54
44531;BME280;30240;47.418;0.700;2023-05-27T11:05:09;100649.20043945312;;;30.0;42.54
44531;BME280;30240;47.418;0.700;2023-05-27T11:07:36;100645.29418945312;;;29.31;42.97
44531;BME280;30240;47.418;0.700;2023-05-27T11:09:58;100643.54858398438;;;28.99;43.31
44531;BME280;30240;47.418;0.700;2023-05-27T11:12:24;100646.69799804688;;;29.42;42.67
44531;BME280;30240;47.418;0.700;2023-05-27T11:14:50;100639.65454101562;;;29.31;41.73
44531;BME280;30240;47.418;0.700;2023-05-27T11:17:14;100639.65454101562;;;29.31;41.73
44531;BME280;30240;47.418;0.700;2023-05-27T11:19:39;100637.36572265625;;;28.36;43.42
44531;BME280;30240;47.418;0.700;2023-05-27T11:22:03;100636.52954101562;;;29.45;41.76
44531;BME280;30240;47.418;0.700;2023-05-27T11:24:28;100638.43994140625;;;29.62;41.49